sensor_id;sensor_type;location;lat;lon;timestamp;P1;durP1;ratioP1;P2;durP2;ratioP2
75423;SDS011;64005;55.160;36.002;2023-10-31T00:01:38;4.45;;;2.35;;
75423;SDS011;64005;55.160;36.002;2023-10-31T00:04:07;6.57;;;1.92;;
75423;SDS011;64005;55.160;36.002;2023-10-31T00:06:35;4.60;;;2.08;;
75423;SDS011;64005;55.160;36.002;2023-10-31T00:09:06;7.07;;;2.30;;
75423;SDS011;64005;55.160;36.002;2023-10-31T00:11:33;6.45;;;2.00;;
75423;SDS011;64005;55.160;36.002;2023-10-31T00:14:00;4.82;;;2.50;;
75423;SDS011;64005;55.160;36.002;2023-10-31T00:16:27;8.18;;;2.70;;
75423;SDS011;64005;55.160;36.002;2023-10-31T00:18:55;9.02;;;2.30;;
75423;SDS011;64005;55.160;36.002;2023-10-31T00:21:23;4.53;;;2.05;;
75423;SDS011;64005;55.160;36.002;2023-10-31T00:26:33;5.95;;;2.75;;
75423;SDS011;64005;55.160;36.002;2023-10-31T00:29:01;22.38;;;3.47;;
75423;SDS011;64005;55.160;36.002;2023-10-31T00:31:28;10.02;;;2.50;;
75423;SDS011;64005;55.160;36.002;2023-10-31T00:33:56;12.45;;;2.83;;
75423;SDS011;64005;55.160;36.002;2023-10-31T00:36:25;6.05;;;2.33;;
75423;SDS011;64005;55.160;36.002;2023-10-31T00:38:52;19.05;;;3.20;;
75423;SDS011;64005;55.160;36.002;2023-10-31T00:41:20;16.52;;;2.95;;
75423;SDS011;64005;55.160;36.002;2023-10-31T00:43:47;4.80;;;2.03;;
75423;SDS011;64005;55.160;36.002;2023-10-31T00:46:15;9.57;;;2.45;;
75423;SDS011;64005;55.160;36.002;2023-10-31T00:48:42;5.80;;;1.95;;
75423;SDS011;64005;55.160;36.002;2023-10-31T00:51:09;69.35;;;6.20;;
75423;SDS011;64005;55.160;36.002;2023-10-31T00:53:38;4.55;;;1.90;;
75423;SDS011;64005;55.160;36.002;2023-10-31T00:56:05;4.68;;;2.08;;
75423;SDS011;64005;55.160;36.002;2023-10-31T00:58:34;4.90;;;2.42;;
75423;SDS011;64005;55.160;36.002;2023-10-31T01:01:01;6.72;;;2.75;;
75423;SDS011;64005;55.160;36.002;2023-10-31T01:03:29;12.90;;;2.72;;
75423;SDS011;64005;55.160;36.002;2023-10-31T01:05:56;98.45;;;6.60;;
75423;SDS011;64005;55.160;36.002;2023-10-31T01:08:23;12.18;;;2.88;;
75423;SDS011;64005;55.160;36.002;2023-10-31T01:10:51;57.13;;;4.38;;
75423;SDS011;64005;55.160;36.002;2023-10-31T01:13:18;72.25;;;6.63;;
75423;SDS011;64005;55.160;36.002;2023-10-31T01:15:45;20.75;;;2.83;;
75423;SDS011;64005;55.160;36.002;2023-10-31T01:18:12;42.88;;;4.43;;
75423;SDS011;64005;55.160;36.002;2023-10-31T01:20:40;30.77;;;2.65;;
75423;SDS011;64005;55.160;36.002;2023-10-31T01:23:07;74.53;;;6.38;;
75423;SDS011;64005;55.160;36.002;2023-10-31T01:25:34;88.60;;;5.88;;
75423;SDS011;64005;55.160;36.002;2023-10-31T01:28:02;12.63;;;2.67;;
75423;SDS011;64005;55.160;36.002;2023-10-31T01:30:30;6.30;;;2.20;;
75423;SDS011;64005;55.160;36.002;2023-10-31T01:32:57;8.63;;;2.17;;
75423;SDS011;64005;55.160;36.002;2023-10-31T01:35:24;30.27;;;3.03;;
75423;SDS011;64005;55.160;36.002;2023-10-31T01:37:51;25.95;;;3.17;;
75423;SDS011;64005;55.160;36.002;2023-10-31T01:40:18;14.02;;;3.75;;
75423;SDS011;64005;55.160;36.002;2023-10-31T01:42:45;5.03;;;1.90;;
75423;SDS011;64005;55.160;36.002;2023-10-31T01:45:13;10.65;;;2.33;;
75423;SDS011;64005;55.160;36.002;2023-10-31T01:47:40;57.35;;;4.50;;
75423;SDS011;64005;55.160;36.002;2023-10-31T01:50:12;41.13;;;2.90;;
75423;SDS011;64005;55.160;36.002;2023-10-31T01:52:40;5.50;;;2.13;;
75423;SDS011;64005;55.160;36.002;2023-10-31T01:55:07;31.23;;;3.10;;
75423;SDS011;64005;55.160;36.002;2023-10-31T01:57:35;5.10;;;2.13;;
75423;SDS011;64005;55.160;36.002;2023-10-31T02:00:04;41.20;;;2.80;;
75423;SDS011;64005;55.160;36.002;2023-10-31T02:02:34;16.50;;;3.33;;
75423;SDS011;64005;55.160;36.002;2023-10-31T02:05:02;4.93;;;2.60;;
75423;SDS011;64005;55.160;36.002;2023-10-31T02:07:30;7.00;;;2.08;;
75423;SDS011;64005;55.160;36.002;2023-10-31T02:09:57;7.55;;;1.90;;
75423;SDS011;64005;55.160;36.002;2023-10-31T02:12:31;4.55;;;1.73;;
75423;SDS011;64005;55.160;36.002;2023-10-31T02:14:59;4.55;;;2.33;;
75423;SDS011;64005;55.160;36.002;2023-10-31T02:17:27;5.22;;;1.85;;
75423;SDS011;64005;55.160;36.002;2023-10-31T02:19:56;3.40;;;1.63;;
75423;SDS011;64005;55.160;36.002;2023-10-31T02:22:25;4.57;;;2.25;;
75423;SDS011;64005;55.160;36.002;2023-10-31T02:24:52;4.47;;;2.50;;
75423;SDS011;64005;55.160;36.002;2023-10-31T02:27:19;5.40;;;2.35;;
75423;SDS011;64005;55.160;36.002;2023-10-31T02:29:46;5.18;;;2.33;;
75423;SDS011;64005;55.160;36.002;2023-10-31T02:32:13;10.32;;;1.88;;
75423;SDS011;64005;55.160;36.002;2023-10-31T02:34:40;6.05;;;2.08;;
75423;SDS011;64005;55.160;36.002;2023-10-31T02:37:07;6.50;;;2.65;;
75423;SDS011;64005;55.160;36.002;2023-10-31T02:39:36;5.18;;;2.67;;
75423;SDS011;64005;55.160;36.002;2023-10-31T02:42:04;5.28;;;2.45;;
75423;SDS011;64005;55.160;36.002;2023-10-31T02:44:32;6.22;;;2.55;;
75423;SDS011;64005;55.160;36.002;2023-10-31T02:47:00;6.55;;;2.28;;
75423;SDS011;64005;55.160;36.002;2023-10-31T02:49:27;5.13;;;2.50;;
75423;SDS011;64005;55.160;36.002;2023-10-31T02:51:54;7.68;;;2.75;;
75423;SDS011;64005;55.160;36.002;2023-10-31T02:54:21;6.28;;;2.55;;
75423;SDS011;64005;55.160;36.002;2023-10-31T02:56:51;15.20;;;2.85;;
75423;SDS011;64005;55.160;36.002;2023-10-31T02:59:20;5.55;;;3.53;;
75423;SDS011;64005;55.160;36.002;2023-10-31T03:01:47;11.20;;;2.15;;
75423;SDS011;64005;55.160;36.002;2023-10-31T03:04:14;20.35;;;3.17;;
75423;SDS011;64005;55.160;36.002;2023-10-31T03:06:41;14.73;;;3.28;;
75423;SDS011;64005;55.160;36.002;2023-10-31T03:09:09;6.40;;;2.63;;
75423;SDS011;64005;55.160;36.002;2023-10-31T03:11:36;8.30;;;3.17;;
75423;SDS011;64005;55.160;36.002;2023-10-31T03:14:04;8.13;;;2.70;;
75423;SDS011;64005;55.160;36.002;2023-10-31T03:16:31;16.55;;;3.28;;
75423;SDS011;64005;55.160;36.002;2023-10-31T03:18:59;9.30;;;2.65;;
75423;SDS011;64005;55.160;36.002;2023-10-31T03:21:26;6.55;;;2.75;;
75423;SDS011;64005;55.160;36.002;2023-10-31T03:23:53;6.75;;;2.83;;
75423;SDS011;64005;55.160;36.002;2023-10-31T03:26:21;4.72;;;2.15;;
75423;SDS011;64005;55.160;36.002;2023-10-31T03:28:52;6.43;;;2.42;;
75423;SDS011;64005;55.160;36.002;2023-10-31T03:31:24;4.25;;;2.25;;
75423;SDS011;64005;55.160;36.002;2023-10-31T03:33:51;12.98;;;2.80;;
75423;SDS011;64005;55.160;36.002;2023-10-31T03:36:19;9.70;;;2.65;;
75423;SDS011;64005;55.160;36.002;2023-10-31T03:38:46;16.75;;;2.28;;
75423;SDS011;64005;55.160;36.002;2023-10-31T03:41:13;5.07;;;2.30;;
75423;SDS011;64005;55.160;36.002;2023-10-31T03:43:40;7.70;;;1.98;;
75423;SDS011;64005;55.160;36.002;2023-10-31T03:46:07;13.40;;;2.53;;
75423;SDS011;64005;55.160;36.002;2023-10-31T03:48:35;22.15;;;3.08;;
75423;SDS011;64005;55.160;36.002;2023-10-31T03:51:03;4.97;;;1.67;;
75423;SDS011;64005;55.160;36.002;2023-10-31T03:53:30;4.38;;;1.92;;
75423;SDS011;64005;55.160;36.002;2023-10-31T03:55:58;5.30;;;1.58;;
75423;SDS011;64005;55.160;36.002;2023-10-31T03:58:26;11.20;;;2.47;;
75423;SDS011;64005;55.160;36.002;2023-10-31T04:00:53;8.75;;;2.22;;
75423;SDS011;64005;55.160;36.002;2023-10-31T04:03:20;2.80;;;1.45;;
75423;SDS011;64005;55.160;36.002;2023-10-31T04:05:48;5.05;;;1.83;;
75423;SDS011;64005;55.160;36.002;2023-10-31T04:08:15;5.07;;;2.10;;
75423;SDS011;64005;55.160;36.002;2023-10-31T04:10:42;8.32;;;2.38;;
75423;SDS011;64005;55.160;36.002;2023-10-31T04:13:09;4.10;;;1.88;;
75423;SDS011;64005;55.160;36.002;2023-10-31T04:15:36;3.63;;;1.75;;
75423;SDS011;64005;55.160;36.002;2023-10-31T04:18:04;12.10;;;3.15;;
75423;SDS011;64005;55.160;36.002;2023-10-31T04:20:31;4.43;;;1.52;;
75423;SDS011;64005;55.160;36.002;2023-10-31T04:22:59;2.38;;;1.08;;
75423;SDS011;64005;55.160;36.002;2023-10-31T04:25:26;5.68;;;2.25;;
75423;SDS011;64005;55.160;36.002;2023-10-31T04:27:54;13.38;;;2.85;;
75423;SDS011;64005;55.160;36.002;2023-10-31T04:30:21;11.93;;;2.22;;
75423;SDS011;64005;55.160;36.002;2023-10-31T04:32:48;42.70;;;3.97;;
75423;SDS011;64005;55.160;36.002;2023-10-31T04:35:15;8.65;;;2.42;;
75423;SDS011;64005;55.160;36.002;2023-10-31T04:37:42;50.63;;;3.67;;
75423;SDS011;64005;55.160;36.002;2023-10-31T04:40:12;38.58;;;3.55;;
75423;SDS011;64005;55.160;36.002;2023-10-31T04:42:39;99.28;;;5.72;;
75423;SDS011;64005;55.160;36.002;2023-10-31T04:45:07;94.72;;;10.07;;
75423;SDS011;64005;55.160;36.002;2023-10-31T04:47:35;94.95;;;6.95;;
75423;SDS011;64005;55.160;36.002;2023-10-31T04:50:02;81.65;;;7.15;;
75423;SDS011;64005;55.160;36.002;2023-10-31T04:52:30;38.60;;;3.22;;
75423;SDS011;64005;55.160;36.002;2023-10-31T04:54:57;42.03;;;3.55;;
75423;SDS011;64005;55.160;36.002;2023-10-31T04:57:26;21.35;;;2.85;;
75423;SDS011;64005;55.160;36.002;2023-10-31T04:59:55;45.42;;;3.30;;
75423;SDS011;64005;55.160;36.002;2023-10-31T05:02:24;60.95;;;4.38;;
75423;SDS011;64005;55.160;36.002;2023-10-31T05:04:51;11.75;;;3.03;;
75423;SDS011;64005;55.160;36.002;2023-10-31T05:07:18;39.72;;;3.80;;
75423;SDS011;64005;55.160;36.002;2023-10-31T05:09:45;11.95;;;2.20;;
75423;SDS011;64005;55.160;36.002;2023-10-31T05:12:12;13.60;;;2.67;;
75423;SDS011;64005;55.160;36.002;2023-10-31T05:14:41;5.80;;;2.42;;
75423;SDS011;64005;55.160;36.002;2023-10-31T05:17:08;3.60;;;2.10;;
75423;SDS011;64005;55.160;36.002;2023-10-31T05:19:35;10.35;;;2.92;;
75423;SDS011;64005;55.160;36.002;2023-10-31T05:22:02;14.52;;;3.03;;
75423;SDS011;64005;55.160;36.002;2023-10-31T05:24:29;15.18;;;2.88;;
75423;SDS011;64005;55.160;36.002;2023-10-31T05:26:57;11.25;;;2.38;;
75423;SDS011;64005;55.160;36.002;2023-10-31T05:29:24;4.93;;;2.15;;
75423;SDS011;64005;55.160;36.002;2023-10-31T05:31:53;5.85;;;2.28;;
75423;SDS011;64005;55.160;36.002;2023-10-31T05:34:20;4.90;;;2.28;;
75423;SDS011;64005;55.160;36.002;2023-10-31T05:36:47;6.68;;;2.83;;
75423;SDS011;64005;55.160;36.002;2023-10-31T05:39:15;6.55;;;3.40;;
75423;SDS011;64005;55.160;36.002;2023-10-31T05:41:42;5.60;;;2.42;;
75423;SDS011;64005;55.160;36.002;2023-10-31T05:44:09;5.20;;;2.60;;
75423;SDS011;64005;55.160;36.002;2023-10-31T05:46:37;7.70;;;2.55;;
75423;SDS011;64005;55.160;36.002;2023-10-31T05:49:07;6.88;;;2.55;;
75423;SDS011;64005;55.160;36.002;2023-10-31T05:51:34;4.90;;;2.30;;
75423;SDS011;64005;55.160;36.002;2023-10-31T05:54:02;9.27;;;2.63;;
75423;SDS011;64005;55.160;36.002;2023-10-31T05:56:29;4.53;;;2.10;;
75423;SDS011;64005;55.160;36.002;2023-10-31T05:58:56;6.50;;;2.47;;
75423;SDS011;64005;55.160;36.002;2023-10-31T06:01:23;6.13;;;2.53;;
75423;SDS011;64005;55.160;36.002;2023-10-31T06:03:50;4.95;;;2.33;;
75423;SDS011;64005;55.160;36.002;2023-10-31T06:06:19;7.78;;;2.38;;
75423;SDS011;64005;55.160;36.002;2023-10-31T06:08:46;6.85;;;2.75;;
75423;SDS011;64005;55.160;36.002;2023-10-31T06:11:13;6.22;;;3.00;;
75423;SDS011;64005;55.160;36.002;2023-10-31T06:13:41;3.45;;;1.63;;
75423;SDS011;64005;55.160;36.002;2023-10-31T06:16:08;4.13;;;2.17;;
75423;SDS011;64005;55.160;36.002;2023-10-31T06:18:36;4.85;;;1.98;;
75423;SDS011;64005;55.160;36.002;2023-10-31T06:21:05;6.75;;;2.72;;
75423;SDS011;64005;55.160;36.002;2023-10-31T06:23:34;6.47;;;2.10;;
75423;SDS011;64005;55.160;36.002;2023-10-31T06:26:01;6.40;;;2.92;;
75423;SDS011;64005;55.160;36.002;2023-10-31T06:28:29;8.68;;;3.30;;
75423;SDS011;64005;55.160;36.002;2023-10-31T06:30:57;8.43;;;3.15;;
75423;SDS011;64005;55.160;36.002;2023-10-31T06:33:24;8.25;;;2.33;;
75423;SDS011;64005;55.160;36.002;2023-10-31T06:35:51;17.40;;;3.00;;
75423;SDS011;64005;55.160;36.002;2023-10-31T06:38:19;4.75;;;2.35;;
75423;SDS011;64005;55.160;36.002;2023-10-31T06:40:47;5.28;;;2.15;;
75423;SDS011;64005;55.160;36.002;2023-10-31T06:43:14;4.07;;;1.55;;
75423;SDS011;64005;55.160;36.002;2023-10-31T06:45:41;6.85;;;2.35;;
75423;SDS011;64005;55.160;36.002;2023-10-31T06:48:08;6.32;;;2.03;;
75423;SDS011;64005;55.160;36.002;2023-10-31T06:50:35;6.90;;;2.50;;
75423;SDS011;64005;55.160;36.002;2023-10-31T06:53:02;5.95;;;2.72;;
75423;SDS011;64005;55.160;36.002;2023-10-31T06:55:29;4.68;;;2.13;;
75423;SDS011;64005;55.160;36.002;2023-10-31T06:57:58;4.93;;;2.35;;
75423;SDS011;64005;55.160;36.002;2023-10-31T07:00:25;5.47;;;1.90;;
75423;SDS011;64005;55.160;36.002;2023-10-31T07:02:52;5.93;;;1.95;;
75423;SDS011;64005;55.160;36.002;2023-10-31T07:05:19;6.25;;;1.48;;
75423;SDS011;64005;55.160;36.002;2023-10-31T07:07:46;9.48;;;2.65;;
75423;SDS011;64005;55.160;36.002;2023-10-31T07:10:13;7.72;;;2.80;;
75423;SDS011;64005;55.160;36.002;2023-10-31T07:12:40;5.65;;;2.33;;
75423;SDS011;64005;55.160;36.002;2023-10-31T07:15:09;6.38;;;1.80;;
75423;SDS011;64005;55.160;36.002;2023-10-31T07:20:07;6.68;;;3.08;;
75423;SDS011;64005;55.160;36.002;2023-10-31T07:22:35;9.15;;;4.25;;
75423;SDS011;64005;55.160;36.002;2023-10-31T07:25:02;6.68;;;3.08;;
75423;SDS011;64005;55.160;36.002;2023-10-31T07:27:29;4.85;;;2.20;;
75423;SDS011;64005;55.160;36.002;2023-10-31T07:29:56;5.50;;;2.80;;
75423;SDS011;64005;55.160;36.002;2023-10-31T07:32:43;8.88;;;3.17;;
75423;SDS011;64005;55.160;36.002;2023-10-31T07:35:10;9.77;;;2.78;;
75423;SDS011;64005;55.160;36.002;2023-10-31T07:37:37;5.78;;;2.35;;
75423;SDS011;64005;55.160;36.002;2023-10-31T07:40:05;6.95;;;2.17;;
75423;SDS011;64005;55.160;36.002;2023-10-31T07:42:33;6.10;;;2.25;;
75423;SDS011;64005;55.160;36.002;2023-10-31T07:45:00;4.53;;;1.90;;
75423;SDS011;64005;55.160;36.002;2023-10-31T07:47:29;5.25;;;2.40;;
75423;SDS011;64005;55.160;36.002;2023-10-31T07:53:03;10.07;;;2.80;;
75423;SDS011;64005;55.160;36.002;2023-10-31T07:55:30;5.88;;;2.30;;
75423;SDS011;64005;55.160;36.002;2023-10-31T08:00:45;5.47;;;2.63;;
75423;SDS011;64005;55.160;36.002;2023-10-31T08:03:12;4.90;;;2.70;;
75423;SDS011;64005;55.160;36.002;2023-10-31T08:05:40;4.47;;;1.92;;
75423;SDS011;64005;55.160;36.002;2023-10-31T08:08:09;6.18;;;2.60;;
75423;SDS011;64005;55.160;36.002;2023-10-31T08:10:36;6.80;;;2.95;;
75423;SDS011;64005;55.160;36.002;2023-10-31T08:13:03;7.57;;;2.45;;
75423;SDS011;64005;55.160;36.002;2023-10-31T08:18:36;7.30;;;2.70;;
75423;SDS011;64005;55.160;36.002;2023-10-31T08:21:03;7.43;;;2.72;;
75423;SDS011;64005;55.160;36.002;2023-10-31T08:23:32;6.47;;;3.45;;
75423;SDS011;64005;55.160;36.002;2023-10-31T08:26:00;5.88;;;2.35;;
75423;SDS011;64005;55.160;36.002;2023-10-31T08:28:27;4.45;;;1.98;;
75423;SDS011;64005;55.160;36.002;2023-10-31T08:30:56;8.60;;;1.80;;
75423;SDS011;64005;55.160;36.002;2023-10-31T08:33:23;4.05;;;1.58;;
75423;SDS011;64005;55.160;36.002;2023-10-31T08:35:50;4.55;;;1.85;;
75423;SDS011;64005;55.160;36.002;2023-10-31T08:38:17;3.92;;;1.73;;
75423;SDS011;64005;55.160;36.002;2023-10-31T08:40:46;3.60;;;1.77;;
75423;SDS011;64005;55.160;36.002;2023-10-31T08:43:14;5.53;;;1.98;;
75423;SDS011;64005;55.160;36.002;2023-10-31T08:45:41;4.50;;;1.88;;
75423;SDS011;64005;55.160;36.002;2023-10-31T08:48:08;4.05;;;1.75;;
75423;SDS011;64005;55.160;36.002;2023-10-31T08:50:35;4.88;;;2.08;;
75423;SDS011;64005;55.160;36.002;2023-10-31T08:53:02;3.63;;;1.40;;
75423;SDS011;64005;55.160;36.002;2023-10-31T08:55:29;3.83;;;1.60;;
75423;SDS011;64005;55.160;36.002;2023-10-31T08:57:58;6.70;;;1.67;;
75423;SDS011;64005;55.160;36.002;2023-10-31T09:00:25;4.15;;;1.88;;
75423;SDS011;64005;55.160;36.002;2023-10-31T09:02:53;3.40;;;1.50;;
75423;SDS011;64005;55.160;36.002;2023-10-31T09:05:20;4.18;;;1.20;;
75423;SDS011;64005;55.160;36.002;2023-10-31T09:07:47;3.53;;;1.60;;
75423;SDS011;64005;55.160;36.002;2023-10-31T09:10:15;7.07;;;2.00;;
75423;SDS011;64005;55.160;36.002;2023-10-31T09:12:42;4.72;;;1.85;;
75423;SDS011;64005;55.160;36.002;2023-10-31T09:15:10;4.15;;;1.42;;
75423;SDS011;64005;55.160;36.002;2023-10-31T09:20:13;4.07;;;1.40;;
75423;SDS011;64005;55.160;36.002;2023-10-31T09:22:41;3.97;;;1.85;;
75423;SDS011;64005;55.160;36.002;2023-10-31T09:25:08;3.78;;;1.45;;
75423;SDS011;64005;55.160;36.002;2023-10-31T09:27:37;5.85;;;1.85;;
75423;SDS011;64005;55.160;36.002;2023-10-31T09:32:42;3.58;;;1.40;;
75423;SDS011;64005;55.160;36.002;2023-10-31T09:35:09;2.83;;;1.27;;
75423;SDS011;64005;55.160;36.002;2023-10-31T09:37:38;3.25;;;1.25;;
75423;SDS011;64005;55.160;36.002;2023-10-31T09:45:50;3.67;;;1.45;;
75423;SDS011;64005;55.160;36.002;2023-10-31T09:51:59;3.90;;;1.23;;
75423;SDS011;64005;55.160;36.002;2023-10-31T09:59:51;3.63;;;1.20;;
75423;SDS011;64005;55.160;36.002;2023-10-31T10:02:20;4.90;;;1.48;;
75423;SDS011;64005;55.160;36.002;2023-10-31T10:12:34;2.80;;;1.15;;
75423;SDS011;64005;55.160;36.002;2023-10-31T10:15:02;6.72;;;2.90;;
75423;SDS011;64005;55.160;36.002;2023-10-31T10:17:32;5.78;;;2.13;;
75423;SDS011;64005;55.160;36.002;2023-10-31T10:22:37;4.13;;;1.45;;
75423;SDS011;64005;55.160;36.002;2023-10-31T10:25:06;5.88;;;1.95;;
75423;SDS011;64005;55.160;36.002;2023-10-31T10:35:38;4.25;;;1.50;;
75423;SDS011;64005;55.160;36.002;2023-10-31T10:38:13;2.58;;;1.00;;
75423;SDS011;64005;55.160;36.002;2023-10-31T10:40:41;2.25;;;0.90;;
75423;SDS011;64005;55.160;36.002;2023-10-31T10:45:44;6.55;;;1.90;;
75423;SDS011;64005;55.160;36.002;2023-10-31T10:48:15;6.55;;;2.78;;
75423;SDS011;64005;55.160;36.002;2023-10-31T10:50:45;6.30;;;3.00;;
75423;SDS011;64005;55.160;36.002;2023-10-31T11:03:38;15.52;;;4.97;;
75423;SDS011;64005;55.160;36.002;2023-10-31T11:09:50;6.05;;;2.63;;
75423;SDS011;64005;55.160;36.002;2023-10-31T11:14:53;5.00;;;2.40;;
75423;SDS011;64005;55.160;36.002;2023-10-31T11:21:04;8.73;;;3.08;;
75423;SDS011;64005;55.160;36.002;2023-10-31T11:23:31;6.75;;;2.22;;
75423;SDS011;64005;55.160;36.002;2023-10-31T11:36:52;6.95;;;3.30;;
75423;SDS011;64005;55.160;36.002;2023-10-31T11:39:19;8.52;;;3.88;;
75423;SDS011;64005;55.160;36.002;2023-10-31T11:41:53;6.95;;;2.95;;
75423;SDS011;64005;55.160;36.002;2023-10-31T11:44:21;12.05;;;5.13;;
75423;SDS011;64005;55.160;36.002;2023-10-31T11:46:50;12.38;;;4.55;;
75423;SDS011;64005;55.160;36.002;2023-10-31T11:49:18;9.15;;;3.67;;
75423;SDS011;64005;55.160;36.002;2023-10-31T11:52:14;9.85;;;3.90;;
75423;SDS011;64005;55.160;36.002;2023-10-31T11:57:26;9.88;;;3.75;;
75423;SDS011;64005;55.160;36.002;2023-10-31T12:02:42;10.18;;;4.22;;
75423;SDS011;64005;55.160;36.002;2023-10-31T12:05:51;9.35;;;4.05;;
75423;SDS011;64005;55.160;36.002;2023-10-31T12:08:28;11.07;;;5.32;;
75423;SDS011;64005;55.160;36.002;2023-10-31T12:11:05;11.48;;;5.05;;
75423;SDS011;64005;55.160;36.002;2023-10-31T12:13:34;47.10;;;12.48;;
75423;SDS011;64005;55.160;36.002;2023-10-31T12:16:03;11.10;;;5.25;;
75423;SDS011;64005;55.160;36.002;2023-10-31T12:18:31;9.82;;;4.00;;
75423;SDS011;64005;55.160;36.002;2023-10-31T12:24:03;12.85;;;5.68;;
75423;SDS011;64005;55.160;36.002;2023-10-31T12:26:31;12.98;;;5.25;;
75423;SDS011;64005;55.160;36.002;2023-10-31T12:29:09;12.02;;;4.85;;
75423;SDS011;64005;55.160;36.002;2023-10-31T12:31:42;10.10;;;4.30;;
75423;SDS011;64005;55.160;36.002;2023-10-31T12:34:10;13.88;;;4.35;;
75423;SDS011;64005;55.160;36.002;2023-10-31T12:39:32;12.07;;;5.43;;
75423;SDS011;64005;55.160;36.002;2023-10-31T12:48:13;11.35;;;4.20;;
75423;SDS011;64005;55.160;36.002;2023-10-31T12:53:59;14.27;;;4.28;;
75423;SDS011;64005;55.160;36.002;2023-10-31T12:56:40;11.85;;;4.85;;
75423;SDS011;64005;55.160;36.002;2023-10-31T12:59:08;18.77;;;7.28;;
75423;SDS011;64005;55.160;36.002;2023-10-31T13:01:41;11.93;;;5.95;;
75423;SDS011;64005;55.160;36.002;2023-10-31T13:04:23;10.50;;;4.35;;
75423;SDS011;64005;55.160;36.002;2023-10-31T13:06:56;11.93;;;5.32;;
75423;SDS011;64005;55.160;36.002;2023-10-31T13:09:27;8.30;;;4.07;;
75423;SDS011;64005;55.160;36.002;2023-10-31T13:14:51;7.75;;;4.00;;
75423;SDS011;64005;55.160;36.002;2023-10-31T13:17:18;8.60;;;3.75;;
75423;SDS011;64005;55.160;36.002;2023-10-31T13:22:47;7.47;;;3.55;;
75423;SDS011;64005;55.160;36.002;2023-10-31T13:25:15;8.57;;;3.67;;
75423;SDS011;64005;55.160;36.002;2023-10-31T13:27:45;7.90;;;3.67;;
75423;SDS011;64005;55.160;36.002;2023-10-31T13:33:07;7.32;;;3.08;;
75423;SDS011;64005;55.160;36.002;2023-10-31T13:35:34;7.03;;;3.00;;
75423;SDS011;64005;55.160;36.002;2023-10-31T13:38:01;5.28;;;2.80;;
75423;SDS011;64005;55.160;36.002;2023-10-31T13:40:28;8.35;;;4.05;;
75423;SDS011;64005;55.160;36.002;2023-10-31T13:42:57;8.55;;;3.88;;
75423;SDS011;64005;55.160;36.002;2023-10-31T13:45:24;9.57;;;4.25;;
75423;SDS011;64005;55.160;36.002;2023-10-31T13:47:51;12.57;;;4.00;;
75423;SDS011;64005;55.160;36.002;2023-10-31T13:50:18;9.80;;;3.83;;
75423;SDS011;64005;55.160;36.002;2023-10-31T13:56:16;7.80;;;3.42;;
75423;SDS011;64005;55.160;36.002;2023-10-31T13:58:46;7.53;;;4.38;;
75423;SDS011;64005;55.160;36.002;2023-10-31T14:01:30;14.35;;;6.07;;
75423;SDS011;64005;55.160;36.002;2023-10-31T14:07:13;9.43;;;5.25;;
75423;SDS011;64005;55.160;36.002;2023-10-31T14:09:47;12.27;;;4.70;;
75423;SDS011;64005;55.160;36.002;2023-10-31T14:12:14;10.15;;;5.25;;
75423;SDS011;64005;55.160;36.002;2023-10-31T14:14:43;8.70;;;4.40;;
75423;SDS011;64005;55.160;36.002;2023-10-31T14:17:10;10.65;;;5.05;;
75423;SDS011;64005;55.160;36.002;2023-10-31T14:19:38;12.13;;;5.90;;
75423;SDS011;64005;55.160;36.002;2023-10-31T14:22:06;10.80;;;4.80;;
75423;SDS011;64005;55.160;36.002;2023-10-31T14:27:08;9.32;;;4.00;;
75423;SDS011;64005;55.160;36.002;2023-10-31T14:29:35;9.43;;;4.78;;
75423;SDS011;64005;55.160;36.002;2023-10-31T14:32:07;13.70;;;5.88;;
75423;SDS011;64005;55.160;36.002;2023-10-31T14:34:35;11.02;;;4.82;;
75423;SDS011;64005;55.160;36.002;2023-10-31T14:37:17;9.30;;;3.45;;
75423;SDS011;64005;55.160;36.002;2023-10-31T14:39:58;6.55;;;2.92;;
75423;SDS011;64005;55.160;36.002;2023-10-31T14:42:25;10.85;;;4.70;;
75423;SDS011;64005;55.160;36.002;2023-10-31T14:44:52;9.30;;;4.60;;
75423;SDS011;64005;55.160;36.002;2023-10-31T14:47:23;9.77;;;4.38;;
75423;SDS011;64005;55.160;36.002;2023-10-31T14:49:50;10.15;;;4.57;;
75423;SDS011;64005;55.160;36.002;2023-10-31T14:52:17;14.00;;;5.50;;
75423;SDS011;64005;55.160;36.002;2023-10-31T14:54:44;8.73;;;4.45;;
75423;SDS011;64005;55.160;36.002;2023-10-31T14:57:13;11.20;;;3.70;;
75423;SDS011;64005;55.160;36.002;2023-10-31T14:59:42;10.68;;;4.95;;
75423;SDS011;64005;55.160;36.002;2023-10-31T15:02:10;10.13;;;4.85;;
75423;SDS011;64005;55.160;36.002;2023-10-31T15:04:38;7.43;;;4.30;;
75423;SDS011;64005;55.160;36.002;2023-10-31T15:07:05;10.68;;;3.47;;
75423;SDS011;64005;55.160;36.002;2023-10-31T15:09:32;12.85;;;4.32;;
75423;SDS011;64005;55.160;36.002;2023-10-31T15:11:59;8.38;;;4.68;;
75423;SDS011;64005;55.160;36.002;2023-10-31T15:14:26;12.85;;;5.10;;
75423;SDS011;64005;55.160;36.002;2023-10-31T15:16:53;11.90;;;5.43;;
75423;SDS011;64005;55.160;36.002;2023-10-31T15:19:20;11.77;;;5.72;;
75423;SDS011;64005;55.160;36.002;2023-10-31T15:21:49;9.25;;;5.18;;
75423;SDS011;64005;55.160;36.002;2023-10-31T15:24:16;9.93;;;5.50;;
75423;SDS011;64005;55.160;36.002;2023-10-31T15:26:43;18.55;;;7.68;;
75423;SDS011;64005;55.160;36.002;2023-10-31T15:29:11;13.13;;;7.00;;
75423;SDS011;64005;55.160;36.002;2023-10-31T15:31:42;6.90;;;3.08;;
75423;SDS011;64005;55.160;36.002;2023-10-31T15:34:10;14.52;;;6.20;;
75423;SDS011;64005;55.160;36.002;2023-10-31T15:36:37;16.35;;;7.35;;
75423;SDS011;64005;55.160;36.002;2023-10-31T15:39:06;17.70;;;6.93;;
75423;SDS011;64005;55.160;36.002;2023-10-31T15:41:35;12.75;;;5.90;;
75423;SDS011;64005;55.160;36.002;2023-10-31T15:44:03;11.52;;;5.18;;
75423;SDS011;64005;55.160;36.002;2023-10-31T15:46:30;9.85;;;4.47;;
75423;SDS011;64005;55.160;36.002;2023-10-31T15:51:46;7.57;;;3.42;;
75423;SDS011;64005;55.160;36.002;2023-10-31T15:54:14;23.42;;;6.22;;
75423;SDS011;64005;55.160;36.002;2023-10-31T15:56:42;22.80;;;6.20;;
75423;SDS011;64005;55.160;36.002;2023-10-31T15:59:09;34.30;;;5.50;;
75423;SDS011;64005;55.160;36.002;2023-10-31T16:01:36;43.92;;;6.45;;
75423;SDS011;64005;55.160;36.002;2023-10-31T16:04:03;35.72;;;7.15;;
75423;SDS011;64005;55.160;36.002;2023-10-31T16:06:30;34.20;;;5.63;;
75423;SDS011;64005;55.160;36.002;2023-10-31T16:08:57;77.68;;;6.95;;
75423;SDS011;64005;55.160;36.002;2023-10-31T16:11:25;71.20;;;7.88;;
75423;SDS011;64005;55.160;36.002;2023-10-31T16:13:53;68.05;;;7.97;;
75423;SDS011;64005;55.160;36.002;2023-10-31T16:16:22;38.53;;;5.82;;
75423;SDS011;64005;55.160;36.002;2023-10-31T16:18:49;15.48;;;5.00;;
75423;SDS011;64005;55.160;36.002;2023-10-31T16:21:16;18.67;;;5.95;;
75423;SDS011;64005;55.160;36.002;2023-10-31T16:24:01;8.50;;;4.22;;
75423;SDS011;64005;55.160;36.002;2023-10-31T16:26:34;15.43;;;4.55;;
75423;SDS011;64005;55.160;36.002;2023-10-31T16:29:01;22.85;;;4.93;;
75423;SDS011;64005;55.160;36.002;2023-10-31T16:31:28;13.05;;;5.32;;
75423;SDS011;64005;55.160;36.002;2023-10-31T16:33:55;14.02;;;5.50;;
75423;SDS011;64005;55.160;36.002;2023-10-31T16:36:23;12.25;;;5.10;;
75423;SDS011;64005;55.160;36.002;2023-10-31T16:38:50;9.85;;;4.68;;
75423;SDS011;64005;55.160;36.002;2023-10-31T16:41:17;12.70;;;6.03;;
75423;SDS011;64005;55.160;36.002;2023-10-31T16:43:46;13.98;;;6.30;;
75423;SDS011;64005;55.160;36.002;2023-10-31T16:46:13;17.45;;;6.68;;